Time;durP1;ratioP1;P1;durP2;ratioP2;P2;SDS_P1;SDS_P2;PMS_P1;PMS_P2;Temp;Humidity;BMP_temperature;BMP_pressure;BME280_temperature;BME280_humidity;BME280_pressure;Samples;Min_cycle;Max_cycle;Signal;HPM_P1;HPM_P2
2021/12/19 00:01:57;;;;;;;0.10;0.10;;;7.10;99.90;;;;;;5074626;28;20412;-78
2021/12/19 00:04:32;;;;;;;0.08;0.08;;;7.10;99.90;;;;;;5091122;28;20057;-78
2021/12/19 00:09:44;;;;;;;0.00;0.00;;;7.10;99.90;;;;;;5108139;28;20051;-78
2021/12/19 00:12:11;;;;;;;0.08;0.08;;;7.10;99.90;;;;;;5091106;28;20552;-79
2021/12/19 00:14:37;;;;;;;0.00;0.00;;;7.20;99.90;;;;;;5090922;28;20041;-78
2021/12/19 00:17:04;;;;;;;0.10;0.10;;;7.50;99.90;;;;;;5090982;28;20036;-77
2021/12/19 00:19:31;;;;;;;0.10;0.10;;;7.20;99.90;;;;;;5108202;28;20122;-77
2021/12/19 00:21:58;;;;;;;0.10;0.10;;;7.10;99.90;;;;;;5074641;28;20041;-78
2021/12/19 00:24:25;;;;;;;0.00;0.00;;;7.10;99.90;;;;;;5090366;28;20044;-79
2021/12/19 00:26:51;;;;;;;0.10;0.10;;;7.10;99.90;;;;;;5090837;28;20051;-78
2021/12/19 00:29:18;;;;;;;0.00;0.00;;;7.10;99.90;;;;;;5090369;28;20033;-77
2021/12/19 00:31:46;;;;;;;0.10;0.10;;;7.10;99.90;;;;;;5090948;28;20044;-77
2021/12/19 00:34:13;;;;;;;0.03;0.03;;;7.10;99.90;;;;;;5090265;28;20036;-79
2021/12/19 00:36:41;;;;;;;0.10;0.10;;;7.10;99.90;;;;;;5091023;28;20182;-79
2021/12/19 00:39:08;;;;;;;0.10;0.10;;;7.10;99.90;;;;;;5106033;28;20043;-79
2021/12/19 00:41:35;;;;;;;0.05;0.05;;;7.10;99.90;;;;;;5074337;28;20408;-79
2021/12/19 00:44:10;;;;;;;0.00;0.00;;;7.10;99.90;;;;;;5090441;28;20416;-77
2021/12/19 00:46:46;;;;;;;0.10;0.10;;;7.10;99.90;;;;;;5075084;28;20036;-78
2021/12/19 00:49:13;;;;;;;0.00;0.00;;;7.20;99.90;;;;;;5089859;28;20036;-77
2021/12/19 00:51:40;;;;;;;0.10;0.10;;;7.20;99.90;;;;;;5090136;28;20040;-78
2021/12/19 00:54:09;;;;;;;0.10;0.10;;;7.20;99.90;;;;;;5073311;28;20044;-78
2021/12/19 00:56:44;;;;;;;0.10;0.10;;;7.20;99.90;;;;;;5090355;28;20051;-77
2021/12/19 00:59:12;;;;;;;0.10;0.10;;;7.30;99.90;;;;;;5089910;28;20508;-77
2021/12/19 01:01:39;;;;;;;0.10;0.10;;;7.20;99.90;;;;;;5089996;28;20139;-78
2021/12/19 01:04:13;;;;;;;0.10;0.10;;;7.20;99.90;;;;;;5089962;28;20135;-78
2021/12/19 01:06:42;;;;;;;0.03;0.03;;;7.30;99.90;;;;;;5090097;28;20132;-78
2021/12/19 01:09:10;;;;;;;0.00;0.00;;;7.30;99.90;;;;;;5106092;28;20040;-78
2021/12/19 01:11:37;;;;;;;0.10;0.10;;;7.30;99.90;;;;;;5106675;28;20051;-78
2021/12/19 01:14:05;;;;;;;0.10;0.10;;;7.30;99.90;;;;;;5073383;28;20040;-79
2021/12/19 01:16:32;;;;;;;0.00;0.00;;;7.30;99.90;;;;;;5106070;28;20123;-79
2021/12/19 01:18:58;;;;;;;0.30;0.10;;;7.30;99.90;;;;;;5089821;28;20119;-78
2021/12/19 01:21:25;;;;;;;0.08;0.08;;;7.30;99.90;;;;;;5089266;28;20043;-79
2021/12/19 01:23:52;;;;;;;0.10;0.10;;;7.30;99.90;;;;;;5089272;28;20076;-78
2021/12/19 01:26:19;;;;;;;0.00;0.00;;;7.40;99.90;;;;;;5088876;28;20040;-77
2021/12/19 01:28:45;;;;;;;0.00;0.00;;;7.40;99.90;;;;;;5106285;28;20044;-79
2021/12/19 01:31:12;;;;;;;0.10;0.10;;;7.40;99.90;;;;;;5105776;28;20033;-79
2021/12/19 01:33:39;;;;;;;0.00;0.00;;;7.40;99.90;;;;;;5089458;28;20047;-79
2021/12/19 01:36:06;;;;;;;0.10;0.10;;;7.40;99.90;;;;;;5089474;28;20036;-77
2021/12/19 01:38:33;;;;;;;0.10;0.10;;;7.40;99.90;;;;;;5072503;28;20436;-77
2021/12/19 01:41:00;;;;;;;0.00;0.00;;;7.40;99.90;;;;;;5106533;28;20040;-78
2021/12/19 01:43:28;;;;;;;0.10;0.10;;;7.30;99.90;;;;;;5089297;28;20127;-78
2021/12/19 01:45:55;;;;;;;0.00;0.00;;;7.30;99.90;;;;;;5072982;28;20041;-78
2021/12/19 01:48:23;;;;;;;0.00;0.00;;;7.20;99.90;;;;;;5089117;28;20043;-78
2021/12/19 01:50:51;;;;;;;0.10;0.10;;;7.20;99.90;;;;;;5072437;28;20043;-79
2021/12/19 01:53:18;;;;;;;0.10;0.10;;;7.30;99.90;;;;;;5088986;28;20037;-79
2021/12/19 01:55:47;;;;;;;0.10;0.10;;;7.10;99.90;;;;;;5089662;28;20109;-78
2021/12/19 01:58:14;;;;;;;0.10;0.10;;;7.20;99.90;;;;;;5105445;28;20044;-79
2021/12/19 02:00:53;;;;;;;0.10;0.10;;;7.10;99.90;;;;;;5088961;28;20040;-79
2021/12/19 02:03:21;;;;;;;0.03;0.03;;;7.30;99.90;;;;;;5088530;28;20812;-79
2021/12/19 02:05:48;;;;;;;0.10;0.10;;;7.10;99.90;;;;;;5072340;28;20477;-78
2021/12/19 02:08:16;;;;;;;0.00;0.00;;;7.00;99.90;;;;;;5105298;28;20072;-79
2021/12/19 02:10:44;;;;;;;0.00;0.00;;;7.00;99.90;;;;;;5072617;28;20036;-79
2021/12/19 02:13:14;;;;;;;0.10;0.10;;;6.90;99.90;;;;;;5105531;28;20043;-78
2021/12/19 02:15:42;;;;;;;0.00;0.00;;;6.90;99.90;;;;;;5105078;28;20086;-80
2021/12/19 02:18:12;;;;;;;0.00;0.00;;;6.90;99.90;;;;;;5088961;28;20087;-79
2021/12/19 02:20:42;;;;;;;0.00;0.00;;;6.80;99.90;;;;;;5105316;28;20048;-78
2021/12/19 02:23:10;;;;;;;0.08;0.08;;;6.80;99.90;;;;;;5088843;28;20568;-79
2021/12/19 02:25:39;;;;;;;0.10;0.10;;;6.80;99.90;;;;;;5088480;28;20103;-78
2021/12/19 02:28:06;;;;;;;0.10;0.10;;;6.80;99.90;;;;;;5105966;28;20044;-78
2021/12/19 02:30:33;;;;;;;0.10;0.10;;;7.10;99.90;;;;;;5105265;28;20101;-78
2021/12/19 02:33:00;;;;;;;0.10;0.10;;;6.80;99.90;;;;;;5088934;28;20398;-78
2021/12/19 02:35:32;;;;;;;0.00;0.00;;;6.70;99.90;;;;;;5088311;28;20094;-78
2021/12/19 02:48:37;;;;;;;0.10;0.10;;;6.70;99.90;;;;;;5104440;28;20041;-78
2021/12/19 02:51:03;;;;;;;0.10;0.10;;;6.70;99.90;;;;;;5088577;28;20043;-78
2021/12/19 02:53:33;;;;;;;0.00;0.00;;;6.70;99.90;;;;;;5071783;28;20473;-78
2021/12/19 02:56:02;;;;;;;0.10;0.10;;;6.60;99.90;;;;;;5105178;28;20036;-78
2021/12/19 02:58:30;;;;;;;0.00;0.00;;;6.60;99.90;;;;;;5104574;28;20127;-78
2021/12/19 03:00:58;;;;;;;0.10;0.10;;;6.60;99.90;;;;;;5088453;28;20063;-78
2021/12/19 03:03:25;;;;;;;0.10;0.10;;;6.60;99.90;;;;;;5090290;28;20063;-79
2021/12/19 03:05:52;;;;;;;0.10;0.10;;;6.80;99.90;;;;;;5075791;28;20040;-78
2021/12/19 03:08:19;;;;;;;0.10;0.10;;;6.60;99.90;;;;;;5092277;28;20044;-79
2021/12/19 03:18:58;;;;;;;0.00;0.00;;;6.70;99.90;;;;;;5108862;28;20055;-78
2021/12/19 03:21:25;;;;;;;0.10;0.10;;;6.70;99.90;;;;;;5091496;28;20044;-78
2021/12/19 03:23:53;;;;;;;0.00;0.00;;;6.70;99.90;;;;;;5075480;28;20063;-79
2021/12/19 03:26:20;;;;;;;0.10;0.10;;;6.70;99.90;;;;;;5092184;28;20044;-78
2021/12/19 03:28:46;;;;;;;0.00;0.00;;;6.70;99.90;;;;;;5091571;28;20421;-79
2021/12/19 03:31:13;;;;;;;0.10;0.10;;;6.70;99.90;;;;;;5092318;28;20033;-78
2021/12/19 03:33:40;;;;;;;0.00;0.00;;;6.70;99.90;;;;;;5074945;28;20421;-79
2021/12/19 03:36:07;;;;;;;0.10;0.10;;;6.70;99.90;;;;;;5075354;28;20047;-78
2021/12/19 03:38:39;;;;;;;0.10;0.10;;;6.70;99.90;;;;;;5091584;28;20117;-78
2021/12/19 03:41:21;;;;;;;0.00;0.00;;;6.70;99.90;;;;;;5092507;28;20048;-78
2021/12/19 03:43:48;;;;;;;0.10;0.10;;;6.60;99.90;;;;;;5076835;28;20079;-78
2021/12/19 03:46:15;;;;;;;0.00;0.00;;;6.60;99.90;;;;;;5108159;28;20041;-78
2021/12/19 03:48:42;;;;;;;0.03;0.03;;;6.70;99.90;;;;;;5074641;28;20040;-79
2021/12/19 03:51:09;;;;;;;0.10;0.10;;;6.60;99.90;;;;;;5108208;28;20044;-80
2021/12/19 03:53:36;;;;;;;0.00;0.00;;;6.70;99.90;;;;;;5107531;28;20086;-78
2021/12/19 03:56:03;;;;;;;0.10;0.10;;;6.60;99.90;;;;;;5091553;28;20040;-78
2021/12/19 03:58:30;;;;;;;0.10;0.10;;;6.70;99.90;;;;;;5090996;28;20420;-79
2021/12/19 04:01:00;;;;;;;0.00;0.00;;;7.00;99.90;;;;;;5075431;28;20036;-79
2021/12/19 04:03:28;;;;;;;0.00;0.00;;;6.70;99.90;;;;;;5108096;28;20053;-78
2021/12/19 04:05:55;;;;;;;0.10;0.10;;;6.70;99.90;;;;;;5091468;28;20489;-79
2021/12/19 04:08:22;;;;;;;0.00;0.00;;;6.80;99.90;;;;;;5091086;28;20044;-78
2021/12/19 04:10:51;;;;;;;0.00;0.00;;;6.70;99.90;;;;;;5091173;28;20052;-78
2021/12/19 04:13:19;;;;;;;0.10;0.10;;;6.70;99.90;;;;;;5107783;28;20082;-79
2021/12/19 04:15:48;;;;;;;0.10;0.10;;;6.80;99.90;;;;;;5090603;28;20041;-78
2021/12/19 04:18:15;;;;;;;0.10;0.10;;;6.80;99.90;;;;;;5108096;28;20093;-78
2021/12/19 04:20:42;;;;;;;0.10;0.10;;;6.80;99.90;;;;;;5090578;28;20052;-78
2021/12/19 04:23:09;;;;;;;0.10;0.10;;;6.80;99.90;;;;;;5091071;28;20047;-78
2021/12/19 04:25:36;;;;;;;0.08;0.08;;;6.80;99.90;;;;;;5090345;28;20480;-78
2021/12/19 04:28:03;;;;;;;0.10;0.10;;;6.80;99.90;;;;;;5107811;28;20076;-79
2021/12/19 04:30:29;;;;;;;0.00;0.00;;;6.80;99.90;;;;;;5090792;28;20036;-78
2021/12/19 04:33:09;;;;;;;0.00;0.00;;;6.90;99.90;;;;;;5090559;28;20044;-79
2021/12/19 04:35:39;;;;;;;0.05;0.05;;;6.80;99.90;;;;;;5090563;28;20040;-78
2021/12/19 04:57:41;;;;;;;;;;;6.90;99.90;;;;;;5092442;28;20044;-78
2021/12/19 05:00:13;;;;;;;0.10;0.10;;;6.90;99.90;;;;;;5106947;28;19916;-79
2021/12/19 05:02:47;;;;;;;0.05;0.05;;;6.90;99.90;;;;;;5106138;28;20511;-78
2021/12/19 05:16:16;;;;;;;0.00;0.00;;;6.90;99.90;;;;;;5106630;28;20080;-79
2021/12/19 05:18:45;;;;;;;0.00;0.00;;;7.00;99.90;;;;;;5073268;28;20123;-79
2021/12/19 05:21:23;;;;;;;0.10;0.10;;;6.90;99.90;;;;;;5090103;28;20044;-78
2021/12/19 05:26:16;;;;;;;0.00;0.00;;;6.90;99.90;;;;;;5105624;28;20050;-78
2021/12/19 05:28:43;;;;;;;0.10;0.10;;;6.90;99.90;;;;;;5106050;28;20408;-79
2021/12/19 05:31:09;;;;;;;0.00;0.00;;;7.00;99.90;;;;;;5072794;28;20060;-78
2021/12/19 05:33:36;;;;;;;0.10;0.10;;;6.90;99.90;;;;;;5073107;28;20037;-78
2021/12/19 05:46:43;;;;;;;0.10;0.10;;;6.90;99.90;;;;;;5090702;28;20570;-79
2021/12/19 05:49:10;;;;;;;0.10;0.10;;;6.90;99.90;;;;;;5056674;28;20037;-79
2021/12/19 05:51:38;;;;;;;0.10;0.10;;;6.90;99.90;;;;;;5106104;28;20041;-79
2021/12/19 05:54:06;;;;;;;0.08;0.08;;;6.90;99.90;;;;;;5088919;28;20492;-78
2021/12/19 05:56:33;;;;;;;0.10;0.10;;;7.00;99.90;;;;;;5105824;28;20036;-79
2021/12/19 05:59:00;;;;;;;0.00;0.00;;;6.90;99.90;;;;;;5055612;28;20118;-78
2021/12/19 06:01:26;;;;;;;0.10;0.10;;;6.90;99.90;;;;;;5072193;28;20048;-78
2021/12/19 06:03:53;;;;;;;0.10;0.10;;;6.90;99.90;;;;;;5072098;28;20166;-78
2021/12/19 06:06:20;;;;;;;0.10;0.10;;;7.00;99.90;;;;;;5072156;28;20090;-78
2021/12/19 06:08:46;;;;;;;0.00;0.00;;;7.00;99.90;;;;;;5071994;28;20493;-78
2021/12/19 06:11:14;;;;;;;0.00;0.00;;;7.00;99.90;;;;;;5072396;28;20040;-79
2021/12/19 06:13:41;;;;;;;0.10;0.10;;;6.90;99.90;;;;;;5072520;28;20039;-78
2021/12/19 06:16:08;;;;;;;0.10;0.10;;;6.90;99.90;;;;;;5088893;28;20044;-78
2021/12/19 06:18:35;;;;;;;0.10;0.10;;;6.90;99.90;;;;;;5088749;28;20110;-78
2021/12/19 06:21:03;;;;;;;0.10;0.10;;;6.90;99.90;;;;;;5088440;28;20036;-78
2021/12/19 06:23:29;;;;;;;0.00;0.00;;;6.90;99.90;;;;;;5072017;28;20048;-78
2021/12/19 06:25:56;;;;;;;0.00;0.00;;;6.90;99.90;;;;;;5088315;28;20037;-78
2021/12/19 06:28:23;;;;;;;0.10;0.10;;;6.90;99.90;;;;;;5105233;28;20481;-78
2021/12/19 06:30:50;;;;;;;0.08;0.08;;;6.90;99.90;;;;;;5071719;28;20123;-78
2021/12/19 06:33:16;;;;;;;0.10;0.10;;;6.90;99.90;;;;;;5088594;28;20037;-78
2021/12/19 06:35:43;;;;;;;0.10;0.10;;;6.90;99.90;;;;;;5088807;28;20116;-79
2021/12/19 06:38:12;;;;;;;0.00;0.00;;;6.90;99.90;;;;;;5104792;28;20117;-79
2021/12/19 06:40:39;;;;;;;0.00;0.00;;;6.90;99.90;;;;;;5088823;28;20056;-78
2021/12/19 06:43:07;;;;;;;0.00;0.00;;;6.90;99.90;;;;;;5071557;28;20040;-78
2021/12/19 06:45:34;;;;;;;0.05;0.05;;;6.90;99.90;;;;;;5105027;28;20040;-79
2021/12/19 06:48:00;;;;;;;0.10;0.10;;;6.90;99.90;;;;;;5105768;28;20048;-78
2021/12/19 06:50:28;;;;;;;0.00;0.00;;;6.80;99.90;;;;;;5088474;28;20058;-78
2021/12/19 06:52:55;;;;;;;0.10;0.10;;;6.80;99.90;;;;;;5088325;28;20130;-79
2021/12/19 06:55:22;;;;;;;0.05;0.05;;;6.80;99.90;;;;;;5104998;28;20084;-78
2021/12/19 06:57:49;;;;;;;0.00;0.00;;;7.00;99.90;;;;;;5104742;28;20230;-78
2021/12/19 07:00:20;;;;;;;0.10;0.10;;;6.80;99.90;;;;;;5104986;28;20469;-79
2021/12/19 07:02:47;;;;;;;0.10;0.10;;;6.80;99.90;;;;;;5104637;28;20463;-78
2021/12/19 07:05:14;;;;;;;0.00;0.00;;;6.80;99.90;;;;;;5086614;28;20482;-79
2021/12/19 07:07:41;;;;;;;0.05;0.05;;;6.80;99.90;;;;;;5068269;28;20068;-79
2021/12/19 07:10:09;;;;;;;0.10;0.10;;;6.80;99.90;;;;;;5084254;28;20103;-79
2021/12/19 07:12:35;;;;;;;0.10;0.10;;;6.80;99.90;;;;;;5084925;28;20033;-78
2021/12/19 07:15:04;;;;;;;0.10;0.10;;;6.80;99.90;;;;;;5084035;28;20504;-78
2021/12/19 07:17:30;;;;;;;0.05;0.05;;;6.80;99.90;;;;;;5084398;28;20040;-80
2021/12/19 07:19:57;;;;;;;0.00;0.00;;;6.70;99.90;;;;;;5051500;28;20040;-79
2021/12/19 07:22:24;;;;;;;0.10;0.10;;;6.80;99.90;;;;;;5067868;28;20045;-80
2021/12/19 07:24:51;;;;;;;0.10;0.10;;;6.80;99.90;;;;;;5084344;28;20040;-80
2021/12/19 07:27:17;;;;;;;0.00;0.00;;;6.70;99.90;;;;;;5068302;28;20043;-80
2021/12/19 07:29:44;;;;;;;0.00;0.00;;;6.70;99.90;;;;;;5051637;28;20060;-78
2021/12/19 07:32:11;;;;;;;0.03;0.03;;;6.80;99.90;;;;;;5084622;28;20064;-79
2021/12/19 07:34:39;;;;;;;0.00;0.00;;;6.80;99.90;;;;;;5084620;28;20469;-80
2021/12/19 07:37:06;;;;;;;0.10;0.10;;;6.70;99.90;;;;;;5070478;28;20036;-80
2021/12/19 07:42:04;;;;;;;0.10;0.10;;;6.80;99.90;;;;;;5086907;28;20132;-79
2021/12/19 07:44:31;;;;;;;0.10;0.10;;;6.70;99.90;;;;;;5061963;28;20075;-78
2021/12/19 07:46:58;;;;;;;0.10;0.10;;;6.70;99.90;;;;;;5097719;28;20409;-79
2021/12/19 07:49:25;;;;;;;0.00;0.00;;;6.80;99.90;;;;;;5077371;28;20037;-76
2021/12/19 07:51:52;;;;;;;0.10;0.10;;;6.80;99.90;;;;;;5080520;28;20423;-79
2021/12/19 07:54:18;;;;;;;0.10;0.10;;;6.80;99.90;;;;;;5079200;28;20029;-78
2021/12/19 07:56:46;;;;;;;0.00;0.00;;;7.00;99.90;;;;;;5100172;28;20037;-78
2021/12/19 07:59:13;;;;;;;0.10;0.10;;;6.80;99.90;;;;;;5074149;28;20493;-78
2021/12/19 08:01:41;;;;;;;0.10;0.10;;;6.80;99.90;;;;;;5067891;28;20060;-78
2021/12/19 08:04:08;;;;;;;0.10;0.10;;;6.80;99.90;;;;;;5077624;28;20452;-79
2021/12/19 08:06:35;;;;;;;0.10;0.10;;;6.80;99.90;;;;;;5067860;28;20115;-78
2021/12/19 08:09:11;;;;;;;0.10;0.10;;;6.90;99.90;;;;;;5107016;28;20079;-79
2021/12/19 08:11:41;;;;;;;;;;;6.80;99.90;;;;;;5091776;28;20446;-80
2021/12/19 08:14:13;;;;;;;0.10;0.10;;;6.80;99.90;;;;;;5102902;28;19922;-80
2021/12/19 08:16:41;;;;;;;0.10;0.10;;;6.80;99.90;;;;;;5091109;28;20044;-80
2021/12/19 08:19:08;;;;;;;0.10;0.10;;;6.80;99.90;;;;;;5070899;28;21614;-80
2021/12/19 08:21:35;;;;;;;0.10;0.10;;;6.80;99.90;;;;;;5074649;28;20115;-80
2021/12/19 08:24:08;;;;;;;0.10;0.10;;;6.90;99.90;;;;;;5070750;28;20124;-79
2021/12/19 08:26:36;;;;;;;0.00;0.00;;;6.80;99.90;;;;;;5086039;28;20043;-80
2021/12/19 08:29:03;;;;;;;0.10;0.10;;;6.80;99.90;;;;;;5068905;28;20044;-80
2021/12/19 08:31:30;;;;;;;0.05;0.05;;;6.90;99.90;;;;;;5071338;28;20486;-79
2021/12/19 08:33:58;;;;;;;0.10;0.10;;;6.80;99.90;;;;;;5076423;28;20036;-79
2021/12/19 08:36:25;;;;;;;0.10;0.10;;;6.90;99.90;;;;;;5072942;28;20126;-79
2021/12/19 08:38:52;;;;;;;0.00;0.00;;;6.90;99.90;;;;;;5070754;28;20099;-79
2021/12/19 08:41:19;;;;;;;0.10;0.10;;;7.00;99.90;;;;;;5069900;28;20081;-79
2021/12/19 08:43:46;;;;;;;0.10;0.10;;;6.80;99.90;;;;;;5087406;28;20047;-79
2021/12/19 08:46:13;;;;;;;0.00;0.00;;;6.90;99.90;;;;;;5086752;28;20048;-80
2021/12/19 08:48:40;;;;;;;0.10;0.10;;;6.90;99.90;;;;;;5086558;28;20114;-78
2021/12/19 08:51:08;;;;;;;0.00;0.00;;;6.90;99.90;;;;;;5053474;28;20033;-80
2021/12/19 08:53:35;;;;;;;0.05;0.05;;;6.90;99.90;;;;;;5087003;28;20044;-78
2021/12/19 08:56:03;;;;;;;0.10;0.10;;;7.00;99.90;;;;;;5069253;28;20037;-79
2021/12/19 08:58:30;;;;;;;0.00;0.00;;;6.90;99.90;;;;;;5070414;28;20048;-80
2021/12/19 09:01:01;;;;;;;0.03;0.03;;;6.90;99.90;;;;;;5086397;28;20067;-79
2021/12/19 09:03:30;;;;;;;0.28;0.28;;;7.00;99.90;;;;;;5073711;28;20060;-81
2021/12/19 09:05:57;;;;;;;0.08;0.08;;;7.00;99.90;;;;;;5090057;28;20084;-80
2021/12/19 09:08:25;;;;;;;0.10;0.10;;;7.00;99.90;;;;;;5089879;28;20528;-79
2021/12/19 09:10:52;;;;;;;0.00;0.00;;;7.00;99.90;;;;;;5102654;28;20032;-80
2021/12/19 09:13:19;;;;;;;0.08;0.08;;;7.00;99.90;;;;;;5056392;28;20041;-80
2021/12/19 09:15:46;;;;;;;0.10;0.10;;;7.10;99.90;;;;;;5075170;28;20047;-81
2021/12/19 09:18:13;;;;;;;0.10;0.10;;;7.00;99.90;;;;;;5054555;28;20401;-81
2021/12/19 09:20:40;;;;;;;0.10;0.10;;;7.00;99.90;;;;;;5073414;28;20489;-79
2021/12/19 09:23:07;;;;;;;0.10;0.10;;;7.00;99.90;;;;;;5089207;28;20174;-80
2021/12/19 09:25:36;;;;;;;0.05;0.05;;;7.00;99.90;;;;;;5073202;28;20048;-81
2021/12/19 09:28:03;;;;;;;0.00;0.00;;;7.00;99.90;;;;;;5087820;28;20082;-81
2021/12/19 09:30:30;;;;;;;0.00;0.00;;;7.00;99.90;;;;;;5053417;28;20123;-80
2021/12/19 09:32:56;;;;;;;0.00;0.00;;;7.10;99.90;;;;;;5053088;28;20494;-81
2021/12/19 09:35:23;;;;;;;0.00;0.00;;;7.10;99.90;;;;;;5069356;28;20047;-82
2021/12/19 09:37:50;;;;;;;0.00;0.00;;;7.10;99.90;;;;;;5087076;28;20438;-80
2021/12/19 09:40:21;;;;;;;0.00;0.00;;;7.10;99.90;;;;;;5072460;28;20040;-79
2021/12/19 09:42:51;;;;;;;0.00;0.00;;;7.10;99.90;;;;;;5073157;28;20496;-79
2021/12/19 09:45:20;;;;;;;0.10;0.10;;;7.10;99.90;;;;;;5105631;28;20551;-80
2021/12/19 09:47:47;;;;;;;0.20;0.10;;;7.10;99.90;;;;;;5075396;28;20064;-80
2021/12/19 09:50:14;;;;;;;0.00;0.00;;;7.10;99.90;;;;;;5036393;28;20036;-81
2021/12/19 09:52:41;;;;;;;0.00;0.00;;;7.20;99.90;;;;;;5081687;28;20115;-80
2021/12/19 09:55:08;;;;;;;0.00;0.00;;;7.20;99.90;;;;;;5071973;28;20131;-79
2021/12/19 09:57:35;;;;;;;0.00;0.00;;;7.20;99.90;;;;;;5078215;28;20041;-81
2021/12/19 10:00:05;;;;;;;0.05;0.05;;;7.20;99.90;;;;;;5069664;28;20062;-80
2021/12/19 10:02:31;;;;;;;0.00;0.00;;;7.30;99.90;;;;;;5077799;28;20838;-80
2021/12/19 10:05:14;;;;;;;0.10;0.10;;;7.20;99.90;;;;;;5089132;28;20131;-80
2021/12/19 10:07:53;;;;;;;0.00;0.00;;;7.20;99.90;;;;;;5088952;28;20072;-80
2021/12/19 10:10:33;;;;;;;0.10;0.10;;;7.20;99.90;;;;;;5088705;28;20047;-81
2021/12/19 10:13:00;;;;;;;0.05;0.05;;;7.30;99.90;;;;;;5072333;28;20095;-80
2021/12/19 10:15:32;;;;;;;0.00;0.00;;;7.30;99.90;;;;;;5088709;28;20562;-81
2021/12/19 10:18:03;;;;;;;0.00;0.00;;;7.30;99.90;;;;;;5076532;28;20052;-80
2021/12/19 10:20:59;;;;;;;0.08;0.08;;;7.20;99.90;;;;;;5073764;28;20044;-80
2021/12/19 10:23:32;;;;;;;0.00;0.00;;;7.30;99.90;;;;;;5103487;28;20048;-80
2021/12/19 10:26:07;;;;;;;0.00;0.00;;;7.30;99.90;;;;;;5089186;28;20044;-80
2021/12/19 10:28:57;;;;;;;0.00;0.00;;;7.30;99.90;;;;;;5074046;28;20468;-81
2021/12/19 10:31:28;;;;;;;0.00;0.00;;;7.30;99.90;;;;;;5068014;28;20056;-80
2021/12/19 10:33:55;;;;;;;0.10;0.10;;;7.30;99.90;;;;;;5084969;28;20167;-81
2021/12/19 10:36:22;;;;;;;0.00;0.00;;;7.30;99.90;;;;;;5071645;28;20079;-80
2021/12/19 10:38:56;;;;;;;0.00;0.00;;;7.30;99.90;;;;;;5085163;28;20519;-80
2021/12/19 10:41:33;;;;;;;0.00;0.00;;;7.40;99.90;;;;;;5081411;28;20044;-80
2021/12/19 10:44:10;;;;;;;0.00;0.00;;;7.50;99.90;;;;;;5101311;28;20509;-80
2021/12/19 10:46:40;;;;;;;0.10;0.10;;;7.40;99.90;;;;;;5080123;28;20128;-80
2021/12/19 10:49:30;;;;;;;0.00;0.00;;;7.40;99.90;;;;;;5088039;28;20047;-81
2021/12/19 10:52:04;;;;;;;0.10;0.10;;;7.40;99.90;;;;;;5088778;28;20032;-80
2021/12/19 10:54:31;;;;;;;0.00;0.00;;;7.50;99.90;;;;;;5082131;28;20045;-82
2021/12/19 10:57:10;;;;;;;0.00;0.00;;;7.50;99.90;;;;;;5105046;28;20095;-81
2021/12/19 10:59:37;;;;;;;0.00;0.00;;;7.50;99.90;;;;;;5069152;28;20464;-82
2021/12/19 11:02:03;;;;;;;0.00;0.00;;;7.50;99.90;;;;;;5085171;28;20057;-80
2021/12/19 11:04:35;;;;;;;0.00;0.00;;;7.50;99.90;;;;;;5085361;28;20053;-81
2021/12/19 11:07:02;;;;;;;0.00;0.00;;;7.50;99.90;;;;;;5087743;28;20040;-80
2021/12/19 11:09:33;;;;;;;0.10;0.10;;;7.50;99.90;;;;;;5080610;28;20076;-80
2021/12/19 11:12:05;;;;;;;0.00;0.00;;;7.50;99.90;;;;;;5093639;28;20066;-82
2021/12/19 11:14:42;;;;;;;0.00;0.00;;;7.60;99.90;;;;;;5085665;28;20052;-81
2021/12/19 11:17:23;;;;;;;0.10;0.10;;;7.60;99.90;;;;;;5086038;28;20041;-82
2021/12/19 11:19:54;;;;;;;0.10;0.10;;;7.60;99.90;;;;;;5070865;28;20122;-81
2021/12/19 11:22:23;;;;;;;0.10;0.10;;;7.50;99.90;;;;;;5094571;28;20056;-81
2021/12/19 11:24:57;;;;;;;0.10;0.10;;;7.60;99.90;;;;;;5108223;28;20505;-84
2021/12/19 11:27:24;;;;;;;0.10;0.10;;;7.60;99.90;;;;;;5089273;28;20064;-82
2021/12/19 11:29:52;;;;;;;0.10;0.10;;;7.60;99.90;;;;;;5072787;28;20108;-81
2021/12/19 11:32:39;;;;;;;0.00;0.00;;;7.60;99.90;;;;;;5073059;28;20041;-82
2021/12/19 11:35:11;;;;;;;0.00;0.00;;;7.60;99.90;;;;;;5089512;28;20413;-83
2021/12/19 11:37:45;;;;;;;0.00;0.00;;;7.60;99.90;;;;;;5089046;28;20045;-81
2021/12/19 11:40:18;;;;;;;0.00;0.00;;;7.80;99.90;;;;;;5089234;28;20196;-83
2021/12/19 11:42:45;;;;;;;0.00;0.00;;;7.70;99.90;;;;;;5073331;28;20397;-81
2021/12/19 11:48:31;;;;;;;0.05;0.05;;;7.70;99.90;;;;;;5071384;28;20040;-82
2021/12/19 11:51:00;;;;;;;0.00;0.00;;;7.70;99.90;;;;;;5055894;28;20041;-82
2021/12/19 11:53:37;;;;;;;0.00;0.00;;;7.70;99.90;;;;;;5071514;28;20345;-82
2021/12/19 11:56:08;;;;;;;0.10;0.10;;;7.70;99.90;;;;;;5072381;28;20512;-82
2021/12/19 11:58:49;;;;;;;0.10;0.10;;;7.70;99.90;;;;;;5071982;28;20041;-83
2021/12/19 12:01:27;;;;;;;0.00;0.00;;;7.70;99.90;;;;;;5071950;28;20494;-82
2021/12/19 12:04:15;;;;;;;0.00;0.00;;;7.80;99.90;;;;;;5072040;28;20053;-81
2021/12/19 12:06:52;;;;;;;0.00;0.00;;;7.80;99.90;;;;;;5055614;28;20839;-81
2021/12/19 12:09:24;;;;;;;0.10;0.10;;;7.80;99.90;;;;;;5072314;28;20079;-83
2021/12/19 12:12:02;;;;;;;0.10;0.10;;;7.80;99.90;;;;;;5089175;28;20087;-82
2021/12/19 12:14:36;;;;;;;0.00;0.00;;;7.80;99.90;;;;;;5072579;28;20063;-83
2021/12/19 12:17:15;;;;;;;0.00;0.00;;;7.80;99.90;;;;;;5089097;28;20464;-83
2021/12/19 12:19:47;;;;;;;0.00;0.00;;;7.80;99.90;;;;;;5088641;28;20041;-83
2021/12/19 12:22:43;;;;;;;0.00;0.00;;;7.80;99.90;;;;;;5088821;28;20041;-81
2021/12/19 12:25:34;;;;;;;0.10;0.10;;;7.80;99.90;;;;;;5072793;28;20505;-81
2021/12/19 12:28:09;;;;;;;0.00;0.00;;;7.80;99.90;;;;;;5071769;28;20051;-82
2021/12/19 12:30:39;;;;;;;0.00;0.00;;;7.80;99.90;;;;;;5071179;28;20044;-81
2021/12/19 12:33:09;;;;;;;0.00;0.00;;;7.80;99.90;;;;;;5071405;28;20037;-82
2021/12/19 12:35:38;;;;;;;0.00;0.00;;;7.80;99.90;;;;;;5071041;28;20037;-82
2021/12/19 12:38:06;;;;;;;0.10;0.10;;;7.80;99.90;;;;;;5088283;28;20493;-81
2021/12/19 12:41:05;;;;;;;0.00;0.00;;;7.80;99.90;;;;;;5088895;28;20041;-81
2021/12/19 12:43:36;;;;;;;0.00;0.00;;;7.80;99.90;;;;;;5088454;28;20045;-80
2021/12/19 12:46:03;;;;;;;0.00;0.00;;;7.80;99.90;;;;;;5072163;28;20032;-81
2021/12/19 12:48:48;;;;;;;0.00;0.00;;;7.80;99.90;;;;;;5088584;28;20049;-81
2021/12/19 12:51:31;;;;;;;0.00;0.00;;;7.70;99.90;;;;;;5071714;28;20041;-81
2021/12/19 12:54:04;;;;;;;0.00;0.00;;;7.70;99.90;;;;;;5071945;28;20120;-81
2021/12/19 12:56:40;;;;;;;0.10;0.10;;;7.70;99.90;;;;;;5087552;28;20045;-82
2021/12/19 12:59:08;;;;;;;0.10;0.10;;;7.70;99.90;;;;;;5072849;28;20048;-81
2021/12/19 13:01:43;;;;;;;0.00;0.00;;;7.70;99.90;;;;;;5054257;28;20041;-82
2021/12/19 13:04:19;;;;;;;0.00;0.00;;;7.70;99.90;;;;;;5071531;28;20049;-81
2021/12/19 13:06:47;;;;;;;;;;;7.60;99.90;;;;;;5071409;28;20045;-81
2021/12/19 13:09:17;;;;;;;0.10;0.10;;;7.70;99.90;;;;;;5070947;28;19923;-82
2021/12/19 13:11:46;;;;;;;0.00;0.00;;;7.70;99.90;;;;;;5087423;28;20452;-80
2021/12/19 13:14:24;;;;;;;0.00;0.00;;;7.70;99.90;;;;;;5054504;28;20037;-82
2021/12/19 13:16:57;;;;;;;0.10;0.10;;;7.70;99.90;;;;;;5070912;28;20076;-82
2021/12/19 13:19:38;;;;;;;0.00;0.00;;;7.70;99.90;;;;;;5070788;28;20041;-81
2021/12/19 13:22:19;;;;;;;0.10;0.10;;;7.80;99.90;;;;;;5070848;28;20051;-80
2021/12/19 13:24:47;;;;;;;0.00;0.00;;;7.70;99.90;;;;;;5056133;28;20452;-81
2021/12/19 13:27:20;;;;;;;1.20;1.10;;;7.80;99.90;;;;;;5054399;28;20841;-80
2021/12/19 13:29:59;;;;;;;0.10;0.10;;;7.80;99.90;;;;;;5086942;28;20037;-80
2021/12/19 13:32:41;;;;;;;0.00;0.00;;;7.80;99.90;;;;;;5070520;28;20037;-81
2021/12/19 13:35:32;;;;;;;0.10;0.10;;;7.80;99.90;;;;;;5070356;28;20045;-81
2021/12/19 13:38:07;;;;;;;0.10;0.10;;;7.80;99.90;;;;;;5070314;28;20043;-81
2021/12/19 13:40:41;;;;;;;0.00;0.00;;;7.80;99.90;;;;;;5070105;28;20045;-82
2021/12/19 13:43:13;;;;;;;0.00;0.00;;;7.80;99.90;;;;;;5070253;28;20041;-82
2021/12/19 13:45:58;;;;;;;0.00;0.00;;;7.80;99.90;;;;;;5086621;28;20048;-82
2021/12/19 13:48:48;;;;;;;0.00;0.00;;;7.80;99.90;;;;;;5070163;28;20075;-81
2021/12/19 13:51:21;;;;;;;0.00;0.00;;;7.80;99.90;;;;;;5086698;28;20045;-81
2021/12/19 13:53:50;;;;;;;0.00;0.00;;;7.80;99.90;;;;;;5069927;28;20413;-81
2021/12/19 13:56:18;;;;;;;0.00;0.00;;;7.80;99.90;;;;;;5086724;28;20045;-82
2021/12/19 13:58:51;;;;;;;0.08;0.08;;;7.90;99.90;;;;;;5070473;28;20053;-82
2021/12/19 14:01:22;;;;;;;0.10;0.10;;;7.80;99.90;;;;;;5069811;28;20386;-82
2021/12/19 14:03:50;;;;;;;0.10;0.10;;;7.90;99.90;;;;;;5069472;28;20057;-82
2021/12/19 14:06:32;;;;;;;0.10;0.10;;;7.90;99.90;;;;;;5069873;28;20071;-83
2021/12/19 14:09:01;;;;;;;0.00;0.00;;;7.80;99.90;;;;;;5070354;28;20040;-82
2021/12/19 14:11:30;;;;;;;0.00;0.00;;;7.90;99.90;;;;;;5086759;28;20048;-82
2021/12/19 14:14:11;;;;;;;0.10;0.10;;;7.90;99.90;;;;;;5053288;28;20033;-82
2021/12/19 14:16:46;;;;;;;0.10;0.10;;;7.80;99.90;;;;;;5069727;28;20041;-81
2021/12/19 14:19:16;;;;;;;0.07;0.07;;;7.80;99.90;;;;;;5086944;28;20045;-82
2021/12/19 14:21:44;;;;;;;0.00;0.00;;;7.80;99.90;;;;;;5070123;28;20045;-82
2021/12/19 14:24:13;;;;;;;0.03;0.03;;;7.80;99.90;;;;;;5070269;28;20037;-80